createdAt,value
2023-01-27T00:01:19.195Z,-1.80
2023-01-27T00:06:21.181Z,-1.73
2023-01-27T00:11:41.283Z,-1.83
2023-01-27T00:16:42.988Z,-1.67
2023-01-27T00:22:03.250Z,-1.70
2023-01-27T00:27:08.979Z,-1.73
2023-01-27T00:32:31.890Z,-1.75
2023-01-27T00:37:33.848Z,-1.64
2023-01-27T00:42:35.716Z,-1.84
2023-01-27T00:47:37.418Z,-1.69
2023-01-27T00:52:39.834Z,-1.91
2023-01-27T00:57:42.946Z,-1.86
2023-01-27T01:02:44.681Z,-1.83
2023-01-27T01:07:46.414Z,-1.79
2023-01-27T01:12:48.169Z,-1.82
2023-01-27T01:17:49.872Z,-1.75
2023-01-27T01:22:51.571Z,-1.72
2023-01-27T01:27:53.298Z,-1.70
2023-01-27T01:32:55.406Z,-1.57
2023-01-27T01:37:57.772Z,-1.77
2023-01-27T01:43:01.727Z,-1.87
2023-01-27T01:48:08.860Z,-1.73
2023-01-27T01:53:11.965Z,-1.84
2023-01-27T01:58:14.132Z,-1.91
2023-01-27T02:03:16.404Z,-1.84
2023-01-27T02:08:25.069Z,-1.80
2023-01-27T02:13:26.835Z,-1.87
2023-01-27T02:18:28.877Z,-1.93
2023-01-27T02:23:47.137Z,-1.82
2023-01-27T02:29:00.804Z,-1.61
2023-01-27T02:34:16.850Z,-1.91
2023-01-27T02:39:22.283Z,-1.86
2023-01-27T02:44:24.359Z,-2.00
2023-01-27T02:49:26.277Z,-1.99
2023-01-27T02:54:30.276Z,-1.88
2023-01-27T02:59:32.405Z,-1.75
2023-01-27T03:04:38.826Z,-1.80
2023-01-27T03:09:40.601Z,-1.87
2023-01-27T03:15:00.841Z,-1.75
2023-01-27T03:20:03.461Z,-1.63
2023-01-27T03:25:05.826Z,-1.68
2023-01-27T03:30:09.533Z,-1.69
2023-01-27T03:35:14.544Z,-1.87
2023-01-27T03:40:36.220Z,-1.85
2023-01-27T03:45:56.610Z,-1.90
2023-01-27T03:50:59.312Z,-1.87
2023-01-27T03:56:01.128Z,-2.01
2023-01-27T04:01:09.136Z,-1.95
2023-01-27T04:06:38.637Z,-1.89
2023-01-27T04:11:55.368Z,-1.75
2023-01-27T04:17:05.731Z,-1.83
2023-01-27T04:22:09.766Z,-1.69
2023-01-27T04:27:13.844Z,-1.88
2023-01-27T04:32:15.748Z,-1.82
2023-01-27T04:37:18.032Z,-1.95
2023-01-27T04:42:20.089Z,-1.87
2023-01-27T04:47:21.952Z,-1.96
2023-01-27T04:52:23.691Z,-1.88
2023-01-27T04:57:27.011Z,-1.84
2023-01-27T05:02:28.805Z,-1.86
2023-01-27T05:07:32.279Z,-1.88
2023-01-27T05:12:34.076Z,-1.86
2023-01-27T05:17:35.881Z,-1.92
2023-01-27T05:22:37.719Z,-1.90
2023-01-27T05:27:39.583Z,-1.70
2023-01-27T05:32:41.427Z,-1.71
2023-01-27T05:37:43.154Z,-1.80
2023-01-27T05:42:44.923Z,-1.84
2023-01-27T05:47:51.584Z,-1.87
2023-01-27T05:52:53.402Z,-1.89
2023-01-27T05:57:55.151Z,-1.80
2023-01-27T06:02:57.149Z,-1.81
2023-01-27T06:07:59.162Z,-1.89
2023-01-27T06:13:01.083Z,-1.80
2023-01-27T06:18:03.000Z,-1.76
2023-01-27T06:23:05.726Z,-1.72
2023-01-27T06:28:10.764Z,-1.74
2023-01-27T06:33:14.895Z,-1.79
2023-01-27T06:38:17.249Z,-1.71
2023-01-27T06:43:18.970Z,-1.59
2023-01-27T06:48:21.067Z,-1.70
2023-01-27T06:53:23.194Z,-1.61
2023-01-27T06:58:25.646Z,-1.70
2023-01-27T07:03:27.900Z,-1.57
2023-01-27T07:08:29.686Z,-1.57
2023-01-27T07:13:31.598Z,-1.44
2023-01-27T07:18:33.431Z,-1.44
2023-01-27T07:23:35.291Z,-1.34
2023-01-27T07:28:37.048Z,-1.35
2023-01-27T07:33:38.863Z,-1.41
2023-01-27T07:38:40.836Z,-1.37
2023-01-27T07:43:42.884Z,-1.48
2023-01-27T07:48:44.674Z,-1.51
2023-01-27T07:53:47.000Z,-1.57
2023-01-27T07:58:48.799Z,-1.59
2023-01-27T08:03:50.936Z,-1.58
2023-01-27T08:08:52.710Z,-1.53
2023-01-27T08:13:54.376Z,-1.60
2023-01-27T08:18:56.650Z,-1.49
2023-01-27T08:24:01.863Z,-1.58
2023-01-27T08:29:03.601Z,-1.52
2023-01-27T08:34:05.353Z,-1.57
2023-01-27T08:39:07.065Z,-1.58
2023-01-27T08:44:08.757Z,-1.67
2023-01-27T08:49:10.464Z,-1.42
2023-01-27T08:54:12.196Z,-1.54
2023-01-27T08:59:13.924Z,-1.43
2023-01-27T09:04:15.658Z,-1.40
2023-01-27T09:09:17.445Z,-1.44
2023-01-27T09:14:20.203Z,-1.27
2023-01-27T09:19:21.939Z,-1.32
2023-01-27T09:24:23.701Z,-1.25
2023-01-27T09:29:25.463Z,-1.31
2023-01-27T09:34:27.119Z,-1.26
2023-01-27T09:39:31.902Z,-1.19
2023-01-27T09:45:04.156Z,-1.26
2023-01-27T09:50:08.540Z,-1.24
2023-01-27T09:55:28.532Z,-1.11
2023-01-27T10:00:59.740Z,-0.91
2023-01-27T10:06:20.456Z,-1.15
2023-01-27T10:11:34.326Z,-1.38
2023-01-27T10:16:45.552Z,-1.35
2023-01-27T10:22:16.404Z,-1.36
2023-01-27T10:27:26.224Z,-1.27
2023-01-27T10:32:34.428Z,-1.16
2023-01-27T10:37:54.277Z,-1.20
2023-01-27T10:43:26.642Z,-1.05
2023-01-27T10:48:46.112Z,-1.31
2023-01-27T10:54:05.750Z,-1.10
2023-01-27T10:59:22.529Z,-1.08
2023-01-27T11:04:46.829Z,-1.24
2023-01-27T11:09:57.326Z,-1.34
2023-01-27T11:15:01.152Z,-1.19
2023-01-27T11:20:29.812Z,-1.25
2023-01-27T11:25:52.829Z,-1.19
2023-01-27T11:31:37.851Z,-1.18
2023-01-27T11:36:39.938Z,-1.09
2023-01-27T11:41:51.655Z,-1.20
2023-01-27T11:46:55.492Z,-1.14
2023-01-27T11:52:19.155Z,-1.06
2023-01-27T11:57:24.257Z,-1.05
2023-01-27T12:02:35.865Z,-0.97
2023-01-27T12:07:46.233Z,-1.06
2023-01-27T12:12:48.489Z,-0.81
2023-01-27T12:18:14.367Z,-0.79
2023-01-27T12:23:24.446Z,-0.77
2023-01-27T12:28:36.601Z,-0.82
2023-01-27T12:33:43.101Z,-0.73
2023-01-27T12:38:52.272Z,-0.71
2023-01-27T12:43:57.427Z,-0.75
2023-01-27T12:49:10.407Z,-0.70
2023-01-27T12:54:21.740Z,-0.63
2023-01-27T12:59:25.698Z,-0.66
2023-01-27T13:04:29.032Z,-0.53
2023-01-27T13:09:33.868Z,-0.54
2023-01-27T13:14:41.507Z,-0.60
2023-01-27T13:19:45.914Z,-0.71
2023-01-27T13:24:52.978Z,-0.52
2023-01-27T13:30:02.260Z,-0.48
2023-01-27T13:35:41.814Z,-0.43
2023-01-27T13:40:45.896Z,-0.40
2023-01-27T13:45:55.604Z,-0.55
2023-01-27T13:51:22.101Z,-0.49
2023-01-27T13:57:04.592Z,-0.49
2023-01-27T14:02:38.949Z,-0.38
2023-01-27T14:07:54.583Z,-0.38
2023-01-27T14:13:30.087Z,-0.45
2023-01-27T14:18:39.601Z,-0.34
2023-01-27T14:23:54.406Z,-0.35
2023-01-27T14:29:17.125Z,-0.33
2023-01-27T14:34:37.274Z,-0.38
2023-01-27T14:39:57.363Z,-0.36
2023-01-27T14:45:26.489Z,-0.43
2023-01-27T14:51:03.595Z,-0.45
2023-01-27T14:56:14.075Z,-0.57
2023-01-27T15:01:24.901Z,-0.42
2023-01-27T15:06:31.292Z,-0.50
2023-01-27T15:11:40.957Z,-0.47
2023-01-27T15:16:57.612Z,-0.58
2023-01-27T15:22:05.291Z,-0.61
2023-01-27T15:27:08.778Z,-0.45
2023-01-27T15:32:27.416Z,-0.56
2023-01-27T15:37:29.324Z,-0.52
2023-01-27T15:42:51.267Z,-0.38
2023-01-27T15:48:06.749Z,-0.18
2023-01-27T15:53:15.373Z,-0.34
2023-01-27T15:58:35.691Z,-0.31
2023-01-27T16:03:44.969Z,-0.20
2023-01-27T16:08:52.397Z,-0.30
2023-01-27T16:14:12.306Z,-0.33
2023-01-27T16:19:13.933Z,-0.33
2023-01-27T16:24:39.958Z,-0.28
2023-01-27T16:29:45.299Z,-0.09
2023-01-27T16:34:47.015Z,-0.10
2023-01-27T16:40:06.219Z,-0.10
2023-01-27T16:45:20.426Z,-0.05
2023-01-27T16:50:40.211Z,0.01
2023-01-27T16:55:42.283Z,-0.06
2023-01-27T17:00:46.976Z,-0.05
2023-01-27T17:05:53.179Z,0.09
2023-01-27T17:10:58.108Z,0.06
2023-01-27T17:16:03.642Z,0.10
2023-01-27T17:21:05.843Z,0.11
2023-01-27T17:26:15.174Z,0.27
2023-01-27T17:31:23.739Z,0.29
2023-01-27T17:36:26.037Z,0.32
2023-01-27T17:41:38.026Z,0.44
2023-01-27T17:46:41.326Z,0.24
2023-01-27T17:51:51.388Z,0.17
2023-01-27T17:57:32.590Z,0.24
2023-01-27T18:02:36.463Z,0.23
2023-01-27T18:07:38.271Z,0.12
2023-01-27T18:12:39.982Z,0.31
2023-01-27T18:17:41.996Z,0.33
2023-01-27T18:22:44.704Z,0.29
2023-01-27T18:27:52.865Z,0.11
2023-01-27T18:33:01.597Z,0.15
2023-01-27T18:38:19.633Z,0.22
2023-01-27T18:43:21.345Z,0.25
2023-01-27T18:48:23.422Z,0.28
2023-01-27T18:53:25.259Z,0.15
2023-01-27T18:58:27.480Z,0.22
2023-01-27T19:03:38.923Z,0.16
2023-01-27T19:08:40.647Z,0.17
2023-01-27T19:13:43.420Z,0.25
2023-01-27T19:18:45.293Z,0.22
2023-01-27T19:23:49.432Z,0.31
2023-01-27T19:28:55.667Z,0.12
2023-01-27T19:33:58.948Z,0.25
2023-01-27T19:39:13.210Z,0.27
2023-01-27T19:44:15.925Z,0.40
2023-01-27T19:49:25.433Z,0.13
2023-01-27T19:54:27.389Z,0.38
2023-01-27T19:59:29.195Z,0.33
2023-01-27T20:04:30.997Z,0.25
2023-01-27T20:09:32.725Z,0.28
2023-01-27T20:14:34.368Z,0.17
2023-01-27T20:19:36.238Z,0.18
2023-01-27T20:24:37.938Z,0.20
2023-01-27T20:29:39.737Z,0.20
2023-01-27T20:34:41.446Z,0.21
2023-01-27T20:39:43.963Z,0.24
2023-01-27T20:44:45.733Z,0.21
2023-01-27T20:49:47.425Z,0.48
2023-01-27T20:54:49.187Z,0.42
2023-01-27T20:59:50.955Z,0.45
2023-01-27T21:04:53.525Z,0.38
2023-01-27T21:09:55.214Z,0.35
2023-01-27T21:14:57.133Z,0.35
2023-01-27T21:19:58.859Z,0.45
2023-01-27T21:25:00.574Z,0.23
2023-01-27T21:30:02.322Z,0.42
2023-01-27T21:35:04.284Z,0.40
2023-01-27T21:40:06.521Z,0.33
2023-01-27T21:45:13.002Z,0.18
2023-01-27T21:50:15.140Z,0.37
2023-01-27T21:55:22.928Z,0.39
2023-01-27T22:00:27.154Z,0.55
2023-01-27T22:05:31.416Z,0.47
2023-01-27T22:10:33.272Z,0.35
2023-01-27T22:15:35.475Z,0.39
2023-01-27T22:20:37.163Z,0.31
2023-01-27T22:25:38.943Z,0.31
2023-01-27T22:30:40.730Z,0.15
2023-01-27T22:35:45.599Z,0.26
2023-01-27T22:40:55.608Z,0.24
2023-01-27T22:46:02.230Z,0.38
2023-01-27T22:51:04.744Z,0.11
2023-01-27T22:56:07.050Z,0.06
2023-01-27T23:01:08.957Z,0.15
2023-01-27T23:06:10.723Z,0.30
2023-01-27T23:11:14.471Z,0.28
2023-01-27T23:16:16.379Z,0.22
2023-01-27T23:21:18.256Z,0.03
2023-01-27T23:26:20.089Z,-0.08
2023-01-27T23:31:22.106Z,0.04
2023-01-27T23:36:26.104Z,0.00
2023-01-27T23:41:27.922Z,-0.03
2023-01-27T23:46:30.294Z,0.19
2023-01-27T23:51:32.108Z,0.22
2023-01-27T23:56:33.798Z,0.07
